createdAt,value
2023-03-13T00:01:12.412Z,6.55
2023-03-13T00:03:39.462Z,5.32
2023-03-13T00:06:06.654Z,3.88
2023-03-13T00:08:33.655Z,6.85
2023-03-13T00:11:05.032Z,4.07
2023-03-13T00:13:31.815Z,7.22
2023-03-13T00:16:10.165Z,4.93
2023-03-13T00:18:37.131Z,4.55
2023-03-13T00:21:09.202Z,6.40
2023-03-13T00:23:38.189Z,4.13
2023-03-13T00:26:08.396Z,3.65
2023-03-13T00:28:37.073Z,5.07
2023-03-13T00:31:15.843Z,3.83
2023-03-13T00:33:45.251Z,5.53
2023-03-13T00:38:46.304Z,3.95
2023-03-13T00:41:18.181Z,6.85
2023-03-13T00:43:45.999Z,5.13
2023-03-13T00:46:14.813Z,5.47
2023-03-13T00:48:41.931Z,6.22
2023-03-13T00:51:09.146Z,3.55
2023-03-13T00:53:36.205Z,2.92
2023-03-13T00:56:06.136Z,3.45
2023-03-13T00:58:35.417Z,5.60
2023-03-13T01:01:13.680Z,3.45
2023-03-13T01:03:42.747Z,2.60
2023-03-13T01:06:12.940Z,6.88
2023-03-13T01:08:40.006Z,4.35
2023-03-13T01:11:16.699Z,3.72
2023-03-13T01:13:44.242Z,2.58
2023-03-13T01:16:11.232Z,5.18
2023-03-13T01:18:40.020Z,3.63
2023-03-13T01:21:07.422Z,3.13
2023-03-13T01:23:34.689Z,3.80
2023-03-13T01:26:04.374Z,5.30
2023-03-13T01:28:31.444Z,3.03
2023-03-13T01:30:58.318Z,6.35
2023-03-13T01:33:25.516Z,6.00
2023-03-13T01:35:52.578Z,3.47
2023-03-13T01:38:19.327Z,3.88
2023-03-13T01:40:49.696Z,3.50
2023-03-13T01:43:26.997Z,3.00
2023-03-13T01:49:06.473Z,3.85
2023-03-13T01:51:47.788Z,3.20
2023-03-13T01:54:20.245Z,3.25
2023-03-13T01:56:53.334Z,3.45
2023-03-13T01:59:27.181Z,2.13
2023-03-13T02:01:57.541Z,2.30
2023-03-13T02:04:28.002Z,3.95
2023-03-13T02:06:58.286Z,3.42
2023-03-13T02:09:30.255Z,4.47
2023-03-13T02:12:15.484Z,3.58
2023-03-13T02:14:45.621Z,1.95
2023-03-13T02:17:13.304Z,2.22
2023-03-13T02:19:48.640Z,3.55
2023-03-13T02:22:21.381Z,3.55
2023-03-13T02:25:10.244Z,3.47
2023-03-13T02:27:37.266Z,4.43
2023-03-13T02:30:06.203Z,2.50
2023-03-13T02:32:33.367Z,2.58
2023-03-13T02:35:13.726Z,2.72
2023-03-13T02:37:44.657Z,1.83
2023-03-13T02:40:22.186Z,1.92
2023-03-13T02:42:50.283Z,2.90
2023-03-13T02:45:18.387Z,1.80
2023-03-13T02:47:45.257Z,1.77
2023-03-13T02:50:13.643Z,1.38
2023-03-13T02:52:50.678Z,1.90
2023-03-13T02:55:39.240Z,2.15
2023-03-13T02:58:06.333Z,1.73
2023-03-13T03:00:36.118Z,3.70
2023-03-13T03:03:02.851Z,2.00
2023-03-13T03:05:29.849Z,3.05
2023-03-13T03:07:57.776Z,3.25
2023-03-13T03:10:25.048Z,2.33
2023-03-13T03:12:52.210Z,1.27
2023-03-13T03:15:19.056Z,1.17
2023-03-13T03:17:47.780Z,2.38
2023-03-13T03:20:14.553Z,1.88
2023-03-13T03:22:43.235Z,1.63
2023-03-13T03:25:10.544Z,2.35
2023-03-13T03:27:37.375Z,1.05
2023-03-13T03:30:22.749Z,1.50
2023-03-13T03:32:51.607Z,3.10
2023-03-13T03:35:20.864Z,2.60
2023-03-13T03:37:47.767Z,1.83
2023-03-13T03:40:15.362Z,1.20
2023-03-13T03:42:42.976Z,1.33
2023-03-13T03:45:10.525Z,1.58
2023-03-13T03:47:37.110Z,1.27
2023-03-13T03:50:04.497Z,0.93
2023-03-13T03:52:39.082Z,1.17
2023-03-13T03:55:06.244Z,1.77
2023-03-13T03:57:33.207Z,1.55
2023-03-13T04:00:00.512Z,1.38
2023-03-13T04:02:27.880Z,1.98
2023-03-13T04:04:54.801Z,1.75
2023-03-13T04:07:26.769Z,0.90
2023-03-13T04:09:53.769Z,1.70
2023-03-13T04:12:26.902Z,1.60
2023-03-13T04:14:55.472Z,1.67
2023-03-13T04:17:22.324Z,1.05
2023-03-13T04:19:49.147Z,1.63
2023-03-13T04:22:16.002Z,0.93
2023-03-13T04:24:48.236Z,1.45
2023-03-13T04:27:15.110Z,1.50
2023-03-13T04:29:43.258Z,1.17
2023-03-13T04:32:23.453Z,2.25
2023-03-13T04:35:08.437Z,0.90
2023-03-13T04:37:53.907Z,1.10
2023-03-13T04:40:39.866Z,5.72
2023-03-13T04:43:24.543Z,1.33
2023-03-13T04:46:11.604Z,0.95
2023-03-13T04:48:38.392Z,1.45
2023-03-13T04:51:23.533Z,1.17
2023-03-13T04:56:57.616Z,1.40
2023-03-13T04:59:47.556Z,0.70
2023-03-13T05:02:23.141Z,1.60
2023-03-13T05:05:08.958Z,0.90
2023-03-13T05:07:56.124Z,1.08
2023-03-13T05:10:43.589Z,1.63
2023-03-13T05:13:25.559Z,1.10
2023-03-13T05:15:52.340Z,1.05
2023-03-13T05:18:54.328Z,0.60
2023-03-13T05:21:50.185Z,1.60
2023-03-13T05:24:37.209Z,2.22
2023-03-13T05:30:25.286Z,1.15
2023-03-13T05:33:12.486Z,1.30
2023-03-13T05:35:47.451Z,2.28
2023-03-13T06:04:09.883Z,0.95
2023-03-13T06:06:38.958Z,1.60
2023-03-13T06:11:47.004Z,1.95
2023-03-13T06:14:13.721Z,2.15
2023-03-13T06:16:46.728Z,2.28
2023-03-13T06:19:24.516Z,2.80
2023-03-13T06:21:52.098Z,3.50
2023-03-13T06:24:18.823Z,1.85
2023-03-13T06:26:49.581Z,1.23
2023-03-13T06:29:17.498Z,2.10
2023-03-13T06:31:44.416Z,3.88
2023-03-13T06:34:12.581Z,1.85
2023-03-13T06:36:39.346Z,2.25
2023-03-13T06:39:06.181Z,3.38
2023-03-13T06:41:33.324Z,1.60
2023-03-13T06:44:00.188Z,2.55
2023-03-13T06:46:27.284Z,1.50
2023-03-13T06:48:54.012Z,1.23
2023-03-13T06:51:22.374Z,3.47
2023-03-13T06:53:49.341Z,1.40
2023-03-13T06:56:16.225Z,2.03
2023-03-13T06:58:43.100Z,1.30
2023-03-13T07:01:11.965Z,1.60
2023-03-13T07:03:39.206Z,2.25
2023-03-13T07:06:06.234Z,1.95
2023-03-13T07:08:33.926Z,1.67
2023-03-13T07:11:06.196Z,1.02
2023-03-13T07:13:32.916Z,1.10
2023-03-13T07:16:01.488Z,1.20
2023-03-13T07:18:28.419Z,2.40
2023-03-13T07:20:56.651Z,1.77
2023-03-13T07:23:24.867Z,2.47
2023-03-13T07:26:04.092Z,2.22
2023-03-13T07:31:16.537Z,1.48
2023-03-13T07:33:44.871Z,1.50
2023-03-13T07:36:13.232Z,2.20
2023-03-13T07:38:40.110Z,2.80
2023-03-13T07:41:07.157Z,3.47
2023-03-13T07:43:33.993Z,1.75
2023-03-13T07:46:03.706Z,3.17
2023-03-13T07:48:41.401Z,1.63
2023-03-13T07:51:12.476Z,1.30
2023-03-13T07:53:39.423Z,1.00
2023-03-13T07:56:10.155Z,1.48
2023-03-13T07:58:38.674Z,1.33
2023-03-13T08:01:11.164Z,1.35
2023-03-13T08:03:38.343Z,1.75
2023-03-13T08:06:11.519Z,0.90
2023-03-13T08:08:38.955Z,1.45
2023-03-13T08:11:14.095Z,2.13
2023-03-13T08:13:41.596Z,2.90
2023-03-13T08:16:11.567Z,1.52
2023-03-13T08:18:40.736Z,1.17
2023-03-13T08:21:18.595Z,2.47
2023-03-13T08:23:45.766Z,2.53
2023-03-13T08:26:15.612Z,2.15
2023-03-13T08:28:44.369Z,2.17
2023-03-13T08:31:19.781Z,1.60
2023-03-13T08:33:48.092Z,2.22
2023-03-13T08:36:23.092Z,2.63
2023-03-13T08:38:50.634Z,2.35
2023-03-13T08:41:22.893Z,2.40
2023-03-13T08:43:52.616Z,1.48
2023-03-13T08:46:20.152Z,3.53
2023-03-13T08:48:55.119Z,3.78
2023-03-13T08:51:24.423Z,2.85
2023-03-13T08:53:52.172Z,2.25
2023-03-13T08:56:21.695Z,3.05
2023-03-13T09:01:19.966Z,1.77
2023-03-13T09:03:47.005Z,1.48
2023-03-13T09:06:14.058Z,3.08
2023-03-13T09:08:41.807Z,2.67
2023-03-13T09:11:11.279Z,1.92
2023-03-13T09:13:42.450Z,1.73
2023-03-13T09:16:29.258Z,2.33
2023-03-13T09:18:57.253Z,1.70
2023-03-13T09:21:30.198Z,2.17
2023-03-13T09:23:57.979Z,2.65
2023-03-13T09:26:25.918Z,4.78
2023-03-13T09:28:53.184Z,2.40
2023-03-13T09:31:23.206Z,1.35
2023-03-13T09:33:50.893Z,1.92
2023-03-13T09:36:21.839Z,1.73
2023-03-13T09:38:51.016Z,3.80
2023-03-13T09:41:18.114Z,2.00
2023-03-13T09:43:50.828Z,2.00
2023-03-13T09:46:26.640Z,1.52
2023-03-13T09:48:59.934Z,1.88
2023-03-13T09:51:37.118Z,1.48
2023-03-13T09:54:08.478Z,1.50
2023-03-13T09:56:47.965Z,1.75
2023-03-13T10:01:54.513Z,1.10
2023-03-13T10:04:44.297Z,2.03
2023-03-13T10:07:12.171Z,2.60
2023-03-13T10:09:40.914Z,1.40
2023-03-13T10:12:17.308Z,1.57
2023-03-13T10:15:09.109Z,1.27
2023-03-13T10:17:38.409Z,1.83
2023-03-13T10:22:38.625Z,2.42
2023-03-13T10:25:30.437Z,2.65
2023-03-13T10:27:58.074Z,1.55
2023-03-13T10:30:25.994Z,1.50
2023-03-13T10:33:07.654Z,1.00
2023-03-13T10:35:43.095Z,2.88
2023-03-13T10:38:14.023Z,2.85
2023-03-13T10:40:42.917Z,2.08
2023-03-13T10:43:22.193Z,0.82
2023-03-13T10:45:49.052Z,2.80
2023-03-13T10:48:19.940Z,0.93
2023-03-13T10:50:49.443Z,3.47
2023-03-13T10:56:10.328Z,1.08
2023-03-13T10:58:46.040Z,1.25
2023-03-13T11:01:22.957Z,1.42
2023-03-13T11:03:51.999Z,1.17
2023-03-13T11:06:50.626Z,2.25
2023-03-13T11:09:17.968Z,1.90
2023-03-13T11:11:48.526Z,1.95
2023-03-13T11:14:21.679Z,2.28
2023-03-13T11:16:51.544Z,1.38
2023-03-13T11:19:30.040Z,1.75
2023-03-13T11:22:13.947Z,4.60
2023-03-13T11:25:03.577Z,1.45
2023-03-13T11:27:58.164Z,2.17
2023-03-13T11:30:51.069Z,1.52
2023-03-13T11:33:47.720Z,2.03
2023-03-13T11:36:29.099Z,1.35
2023-03-13T11:39:00.255Z,1.58
2023-03-13T11:41:29.707Z,1.00
2023-03-13T11:44:23.154Z,2.08
2023-03-13T11:46:55.782Z,1.35
2023-03-13T11:50:09.076Z,1.55
2023-03-13T11:52:43.806Z,0.70
2023-03-13T11:55:21.564Z,3.17
2023-03-13T11:58:00.106Z,1.77
2023-03-13T12:00:46.269Z,2.37
2023-03-13T12:03:16.809Z,1.63
2023-03-13T12:05:59.162Z,2.35
2023-03-13T12:08:41.594Z,2.22
2023-03-13T12:11:29.026Z,2.80
2023-03-13T12:14:02.921Z,2.35
2023-03-13T12:16:44.879Z,1.05
2023-03-13T12:19:17.851Z,2.30
2023-03-13T12:21:53.262Z,1.92
2023-03-13T12:24:36.598Z,1.88
2023-03-13T12:27:18.398Z,3.35
2023-03-13T12:29:45.102Z,3.08
2023-03-13T12:32:24.821Z,1.73
2023-03-13T12:35:03.116Z,2.17
2023-03-13T12:40:32.294Z,2.50
2023-03-13T12:43:15.983Z,6.93
2023-03-13T12:46:14.999Z,2.58
2023-03-13T12:49:00.648Z,3.88
2023-03-13T12:51:37.493Z,3.60
2023-03-13T12:54:21.770Z,4.45
2023-03-13T12:56:57.289Z,3.72
2023-03-13T12:59:39.963Z,2.65
2023-03-13T13:02:20.457Z,1.80
2023-03-13T13:04:49.690Z,2.92
2023-03-13T13:07:38.119Z,1.70
2023-03-13T13:10:10.947Z,5.83
2023-03-13T13:12:45.660Z,3.45
2023-03-13T13:15:28.967Z,2.70
2023-03-13T13:18:25.656Z,2.20
2023-03-13T13:21:07.308Z,3.00
2023-03-13T13:23:39.375Z,2.88
2023-03-13T13:26:26.678Z,1.77
2023-03-13T13:28:54.603Z,4.88
2023-03-13T13:31:50.894Z,2.10
2023-03-13T13:34:32.281Z,2.88
2023-03-13T13:36:59.736Z,2.63
2023-03-13T13:39:48.125Z,3.58
2023-03-13T13:42:29.880Z,2.90
2023-03-13T13:45:22.554Z,1.70
2023-03-13T13:47:50.636Z,2.40
2023-03-13T13:50:25.923Z,2.58
2023-03-13T13:52:53.603Z,10.30
2023-03-13T13:55:38.781Z,5.47
2023-03-13T13:58:12.074Z,4.82
2023-03-13T14:00:47.403Z,1.48
2023-03-13T14:03:24.430Z,4.03
2023-03-13T14:06:30.683Z,2.17
2023-03-13T14:09:14.661Z,6.57
2023-03-13T14:11:41.351Z,3.60
2023-03-13T14:14:34.657Z,2.55
2023-03-13T14:17:01.511Z,1.95
2023-03-13T14:19:28.648Z,4.18
2023-03-13T14:22:04.742Z,4.50
2023-03-13T14:24:31.700Z,7.07
2023-03-13T14:26:58.380Z,4.53
2023-03-13T14:29:26.449Z,5.15
2023-03-13T14:31:53.423Z,4.72
2023-03-13T14:34:21.067Z,7.38
2023-03-13T14:36:49.171Z,6.18
2023-03-13T14:39:31.135Z,8.52
2023-03-13T14:42:13.665Z,7.80
2023-03-13T14:44:42.918Z,9.43
2023-03-13T14:47:19.075Z,10.75
2023-03-13T14:49:47.355Z,13.35
2023-03-13T14:52:20.681Z,11.68
2023-03-13T14:54:55.218Z,13.57
2023-03-13T14:57:27.066Z,14.48
2023-03-13T15:00:29.591Z,17.05
2023-03-13T15:03:16.494Z,17.35
2023-03-13T15:05:47.683Z,17.40
2023-03-13T15:08:22.895Z,16.50
2023-03-13T15:10:53.789Z,16.17
2023-03-13T15:13:25.297Z,16.30
2023-03-13T15:15:53.554Z,20.63
2023-03-13T15:18:22.335Z,20.30
2023-03-13T15:20:57.531Z,21.07
2023-03-13T15:23:24.905Z,21.02
2023-03-13T15:25:51.674Z,24.08
2023-03-13T15:28:21.350Z,23.88
2023-03-13T15:30:51.214Z,21.35
2023-03-13T15:33:20.575Z,20.73
2023-03-13T15:38:17.377Z,23.45
2023-03-13T15:40:45.118Z,25.10
2023-03-13T15:43:13.206Z,26.98
2023-03-13T15:45:41.998Z,23.33
2023-03-13T15:48:18.298Z,27.15
2023-03-13T15:50:46.590Z,26.38
2023-03-13T15:53:19.454Z,26.17
2023-03-13T15:55:50.441Z,21.63
2023-03-13T15:58:17.926Z,26.35
2023-03-13T16:00:49.144Z,25.55
2023-03-13T16:03:22.002Z,25.65
2023-03-13T16:05:49.211Z,24.80
2023-03-13T16:08:34.343Z,24.85
2023-03-13T16:11:02.213Z,26.73
2023-03-13T16:13:28.853Z,25.83
2023-03-13T16:15:56.683Z,24.15
2023-03-13T16:18:24.915Z,24.60
2023-03-13T16:20:53.115Z,24.70
2023-03-13T16:23:19.863Z,24.35
2023-03-13T16:25:48.623Z,24.00
2023-03-13T16:28:16.027Z,23.33
2023-03-13T16:30:47.786Z,26.45
2023-03-13T16:33:14.936Z,23.02
2023-03-13T16:35:42.122Z,21.95
2023-03-13T16:38:12.126Z,20.92
2023-03-13T16:40:38.944Z,23.67
2023-03-13T16:43:05.810Z,25.95
2023-03-13T16:45:32.425Z,22.55
2023-03-13T16:47:59.160Z,22.23
2023-03-13T16:50:25.811Z,20.75
2023-03-13T16:52:54.101Z,21.33
2023-03-13T16:55:24.734Z,18.63
2023-03-13T16:57:52.453Z,24.55
2023-03-13T17:00:21.521Z,20.88
2023-03-13T17:02:48.685Z,22.98
2023-03-13T17:05:16.194Z,21.13
2023-03-13T17:07:48.210Z,20.92
2023-03-13T17:10:22.468Z,19.00
2023-03-13T17:12:50.216Z,21.67
2023-03-13T17:15:18.843Z,18.20
2023-03-13T17:17:51.507Z,18.92
2023-03-13T17:20:22.329Z,18.58
2023-03-13T17:22:49.640Z,19.33
2023-03-13T17:25:16.713Z,17.02
2023-03-13T17:27:44.108Z,18.25
2023-03-13T17:30:21.919Z,18.55
2023-03-13T17:32:50.257Z,16.95
2023-03-13T17:35:18.250Z,18.80
2023-03-13T17:37:45.097Z,18.35
2023-03-13T17:40:12.585Z,16.83
2023-03-13T17:42:39.449Z,15.32
2023-03-13T17:45:06.911Z,15.82
2023-03-13T17:47:33.565Z,17.77
2023-03-13T17:50:00.443Z,17.23
2023-03-13T17:52:27.314Z,15.88
2023-03-13T17:54:54.148Z,15.65
2023-03-13T17:57:22.616Z,13.93
2023-03-13T17:59:49.568Z,14.17
2023-03-13T18:02:17.453Z,16.90
2023-03-13T18:04:45.144Z,14.70
2023-03-13T18:07:32.992Z,14.00
2023-03-13T18:09:59.745Z,15.93
2023-03-13T18:12:26.551Z,14.48
2023-03-13T18:14:53.325Z,14.55
2023-03-13T18:17:22.617Z,15.25
2023-03-13T18:22:27.520Z,13.38
2023-03-13T18:24:54.138Z,13.35
2023-03-13T18:27:22.148Z,14.07
2023-03-13T18:29:49.489Z,12.88
2023-03-13T18:32:18.060Z,13.80
2023-03-13T18:34:45.378Z,12.83
2023-03-13T18:37:30.452Z,12.18
2023-03-13T18:39:58.136Z,11.00
2023-03-13T18:42:25.326Z,12.90
2023-03-13T18:44:52.918Z,9.77
2023-03-13T18:47:22.160Z,9.65
2023-03-13T18:49:49.956Z,12.48
2023-03-13T18:52:17.403Z,10.05
2023-03-13T18:54:44.982Z,9.93
2023-03-13T18:57:20.053Z,11.85
2023-03-13T18:59:46.970Z,9.68
2023-03-13T19:02:16.893Z,11.27
2023-03-13T19:04:44.702Z,10.48
2023-03-13T19:07:18.636Z,11.20
2023-03-13T19:09:47.272Z,10.93
2023-03-13T19:12:15.661Z,9.88
2023-03-13T19:14:43.180Z,10.02
2023-03-13T19:17:23.895Z,9.32
2023-03-13T19:19:50.941Z,9.35
2023-03-13T19:22:17.745Z,10.32
2023-03-13T19:24:44.428Z,9.00
2023-03-13T19:27:14.307Z,8.32
2023-03-13T19:29:40.979Z,8.65
2023-03-13T19:32:12.652Z,9.18
2023-03-13T19:34:39.325Z,8.98
2023-03-13T19:37:06.127Z,8.23
2023-03-13T19:39:34.689Z,7.45
2023-03-13T19:42:01.344Z,9.23
2023-03-13T19:44:28.307Z,7.72
2023-03-13T19:46:55.978Z,7.93
2023-03-13T19:49:23.077Z,8.73
2023-03-13T19:51:49.916Z,7.47
2023-03-13T19:54:16.743Z,12.02
2023-03-13T19:56:45.783Z,11.68
2023-03-13T19:59:18.059Z,17.20
2023-03-13T20:01:45.330Z,16.55
2023-03-13T20:04:12.393Z,16.73
2023-03-13T20:06:40.393Z,16.10
2023-03-13T20:09:09.837Z,14.55
2023-03-13T20:14:03.901Z,13.93
2023-03-13T20:16:33.750Z,13.35
2023-03-13T20:19:01.846Z,11.65
2023-03-13T20:21:31.404Z,10.18
2023-03-13T20:23:59.063Z,9.32
2023-03-13T20:26:28.011Z,7.20
2023-03-13T20:28:55.716Z,8.65
2023-03-13T20:31:28.189Z,9.25
2023-03-13T20:33:56.220Z,9.65
2023-03-13T20:36:24.355Z,9.75
2023-03-13T20:38:51.521Z,7.75
2023-03-13T20:41:24.412Z,7.40
2023-03-13T20:43:52.278Z,6.15
2023-03-13T20:46:19.398Z,8.43
2023-03-13T20:48:46.296Z,8.05
2023-03-13T20:51:13.392Z,5.35
2023-03-13T20:53:41.748Z,5.32
2023-03-13T20:56:10.232Z,6.88
2023-03-13T20:58:37.843Z,7.97
2023-03-13T21:01:05.873Z,6.65
2023-03-13T21:03:35.470Z,6.47
2023-03-13T21:06:18.390Z,6.03
2023-03-13T21:08:46.141Z,8.13
2023-03-13T21:11:13.380Z,7.95
2023-03-13T21:13:40.059Z,6.38
2023-03-13T21:16:07.385Z,8.20
2023-03-13T21:18:34.334Z,8.63
2023-03-13T21:21:09.910Z,6.90
2023-03-13T21:23:38.058Z,4.63
2023-03-13T21:26:05.366Z,7.22
2023-03-13T21:28:32.453Z,5.35
2023-03-13T21:30:59.416Z,4.57
2023-03-13T21:33:26.354Z,6.45
2023-03-13T21:35:53.458Z,6.03
2023-03-13T21:38:20.546Z,6.13
2023-03-13T21:40:47.203Z,4.45
2023-03-13T21:43:13.949Z,5.20
2023-03-13T21:45:40.706Z,3.67
2023-03-13T21:48:07.350Z,4.72
2023-03-13T21:50:34.009Z,5.28
2023-03-13T21:53:00.721Z,5.00
2023-03-13T21:55:27.461Z,4.63
2023-03-13T21:57:54.122Z,5.03
2023-03-13T22:00:21.467Z,4.25
2023-03-13T22:02:48.129Z,4.45
2023-03-13T22:05:15.091Z,5.38
2023-03-13T22:07:41.923Z,3.60
2023-03-13T22:10:09.563Z,5.60
2023-03-13T22:12:37.340Z,4.82
2023-03-13T22:15:04.731Z,3.88
2023-03-13T22:17:31.718Z,3.42
2023-03-13T22:19:58.462Z,5.28
2023-03-13T22:22:25.800Z,3.85
2023-03-13T22:24:54.153Z,4.38
2023-03-13T22:27:23.297Z,3.25
2023-03-13T22:32:17.023Z,3.30
2023-03-13T22:34:47.111Z,5.45
2023-03-13T22:37:14.440Z,4.53
2023-03-13T22:39:41.447Z,3.25
2023-03-13T22:42:08.220Z,3.58
2023-03-13T22:44:35.085Z,3.22
2023-03-13T22:47:01.763Z,4.15
2023-03-13T22:49:28.815Z,3.33
2023-03-13T22:51:55.597Z,3.15
2023-03-13T22:54:22.380Z,5.90
2023-03-13T22:56:49.134Z,2.72
2023-03-13T22:59:15.809Z,2.90
2023-03-13T23:01:42.558Z,4.82
2023-03-13T23:04:09.249Z,3.75
2023-03-13T23:06:36.039Z,2.75
2023-03-13T23:09:03.382Z,3.40
2023-03-13T23:11:30.215Z,4.60
2023-03-13T23:13:56.939Z,2.80
2023-03-13T23:16:23.922Z,4.53
2023-03-13T23:18:50.863Z,3.70
2023-03-13T23:21:18.084Z,3.63
2023-03-13T23:23:45.107Z,11.43
2023-03-13T23:26:14.930Z,2.55
2023-03-13T23:28:42.043Z,2.10
2023-03-13T23:31:11.034Z,3.30
2023-03-13T23:33:38.344Z,3.53
2023-03-13T23:36:10.264Z,4.90
2023-03-13T23:38:37.265Z,4.13
2023-03-13T23:41:12.465Z,3.15
2023-03-13T23:43:39.639Z,2.72
2023-03-13T23:46:15.089Z,2.60
2023-03-13T23:48:41.816Z,3.75
2023-03-13T23:51:08.725Z,3.72
2023-03-13T23:53:39.836Z,3.20
2023-03-13T23:56:07.023Z,2.97
2023-03-13T23:58:34.201Z,3.13
